Time;durP1;ratioP1;P1;durP2;ratioP2;P2;SDS_P1;SDS_P2;PMS_P1;PMS_P2;Temp;Humidity;BMP_temperature;BMP_pressure;BME280_temperature;BME280_humidity;BME280_pressure;Samples;Min_cycle;Max_cycle;Signal;HPM_P1;HPM_P2
2022/03/25 00:06:27;;;;;;;0.90;0.20;;;2.50;52.50;;;;;;20644513;28;20101;-48
2022/03/25 00:16:30;;;;;;;1.15;0.20;;;2.40;54.30;;;;;;20676382;28;20038;-46
2022/03/25 00:26:33;;;;;;;0.68;0.28;;;2.20;53.80;;;;;;20675213;28;20042;-46
2022/03/25 00:36:35;;;;;;;0.47;0.10;;;2.10;51.90;;;;;;20674639;28;20113;-47
2022/03/25 00:46:39;;;;;;;0.30;0.10;;;2.30;51.80;;;;;;20673633;28;20046;-46
2022/03/25 00:56:42;;;;;;;2.50;0.22;;;2.20;52.30;;;;;;20641085;28;20393;-46
2022/03/25 01:06:45;;;;;;;1.70;0.20;;;2.40;52.20;;;;;;20674397;28;20441;-46
2022/03/25 01:16:49;;;;;;;0.95;0.20;;;2.30;51.20;;;;;;20636798;28;20452;-49
2022/03/25 01:26:51;;;;;;;1.45;0.30;;;2.20;52.40;;;;;;20656316;28;20038;-45
2022/03/25 01:36:54;;;;;;;0.73;0.30;;;2.00;52.70;;;;;;20670779;28;20046;-45
2022/03/25 01:46:59;;;;;;;2.00;0.10;;;2.00;52.30;;;;;;20653751;28;20493;-45
2022/03/25 01:57:05;;;;;;;1.10;0.28;;;2.20;52.40;;;;;;20638876;28;20026;-45
2022/03/25 02:07:09;;;;;;;0.70;0.30;;;2.10;53.20;;;;;;20638558;28;20069;-47
2022/03/25 02:17:12;;;;;;;0.73;0.32;;;2.10;52.40;;;;;;20668993;28;20066;-46
2022/03/25 02:27:17;;;;;;;1.95;0.30;;;2.20;52.30;;;;;;20652475;28;20031;-48
2022/03/25 02:37:20;;;;;;;0.88;0.40;;;2.10;54.40;;;;;;20654623;28;20050;-46
2022/03/25 02:47:24;;;;;;;1.60;0.65;;;2.10;55.10;;;;;;20652079;28;20540;-44
2022/03/25 02:57:30;;;;;;;1.73;0.90;;;1.90;55.50;;;;;;20653719;28;20034;-47
2022/03/25 03:07:35;;;;;;;3.55;1.50;;;1.90;56.60;;;;;;20662074;28;20417;-45
2022/03/25 03:17:39;;;;;;;3.13;0.98;;;1.80;57.80;;;;;;20680912;28;20038;-52
2022/03/25 03:27:41;;;;;;;2.92;1.10;;;1.50;58.70;;;;;;20680388;28;20038;-44
2022/03/25 03:37:46;;;;;;;1.67;0.65;;;1.60;57.50;;;;;;20679936;28;20138;-46
2022/03/25 03:47:49;;;;;;;2.15;0.73;;;1.80;55.90;;;;;;20678856;28;20050;-45
2022/03/25 03:57:52;;;;;;;2.03;0.88;;;2.00;55.10;;;;;;20647920;28;20046;-47
2022/03/25 04:07:54;;;;;;;2.35;0.80;;;1.90;54.80;;;;;;20661053;28;20556;-46
2022/03/25 04:17:58;;;;;;;2.42;0.95;;;2.00;54.00;;;;;;20676013;28;20417;-46
2022/03/25 04:28:01;;;;;;;2.58;1.00;;;2.00;54.60;;;;;;20660217;28;20042;-46
2022/03/25 04:38:04;;;;;;;2.05;0.90;;;2.00;54.00;;;;;;20674722;28;20078;-46
2022/03/25 04:48:08;;;;;;;2.80;0.90;;;1.90;53.80;;;;;;20657864;28;20397;-47
2022/03/25 04:58:11;;;;;;;1.95;0.63;;;1.80;55.20;;;;;;20657170;28;20096;-47
2022/03/25 05:08:15;;;;;;;1.67;0.50;;;1.80;54.90;;;;;;20656420;28;20038;-46
2022/03/25 05:18:17;;;;;;;1.80;0.80;;;1.80;54.30;;;;;;20655356;28;20030;-45
2022/03/25 05:28:20;;;;;;;2.00;0.80;;;1.80;54.30;;;;;;20670357;28;20100;-45
2022/03/25 05:38:22;;;;;;;1.80;0.90;;;1.90;54.50;;;;;;20670921;28;20547;-47
2022/03/25 05:48:25;;;;;;;4.30;1.23;;;2.40;53.20;;;;;;20670445;28;20050;-47
2022/03/25 05:58:28;;;;;;;4.00;0.85;;;2.40;54.40;;;;;;20672758;28;20490;-47
2022/03/25 06:08:31;;;;;;;3.83;1.20;;;2.30;54.80;;;;;;20669432;28;20098;-47
2022/03/25 06:18:33;;;;;;;3.25;1.58;;;2.40;55.20;;;;;;20667873;28;20046;-45
2022/03/25 06:28:36;;;;;;;5.03;1.98;;;2.50;55.70;;;;;;20664835;28;20042;-47
2022/03/25 06:38:42;;;;;;;6.47;2.45;;;2.80;56.50;;;;;;20643489;28;20124;-45
2022/03/25 06:48:46;;;;;;;5.97;2.78;;;3.10;57.40;;;;;;20683424;28;20034;-46
2022/03/25 06:58:49;;;;;;;6.05;3.22;;;3.40;58.80;;;;;;20683726;28;20504;-47
2022/03/25 07:08:54;;;;;;;6.25;3.22;;;4.00;59.70;;;;;;20682131;28;20042;-46
2022/03/25 07:18:59;;;;;;;9.05;4.68;;;5.30;58.10;;;;;;20681234;28;20038;-46
2022/03/25 07:29:01;;;;;;;9.07;4.80;;;6.60;57.80;;;;;;20680074;28;20034;-51
2022/03/25 07:39:05;;;;;;;8.75;5.45;;;8.00;56.00;;;;;;20679430;28;20097;-48
2022/03/25 07:49:08;;;;;;;10.48;5.53;;;9.50;55.90;;;;;;20678030;28;20061;-48
2022/03/25 07:59:11;;;;;;;11.30;5.57;;;10.90;51.70;;;;;;20678297;28;20031;-50
2022/03/25 08:09:13;;;;;;;10.70;5.95;;;11.80;49.10;;;;;;20677354;28;20547;-47
2022/03/25 08:19:16;;;;;;;13.82;6.32;;;12.30;50.00;;;;;;20676324;28;20120;-49
2022/03/25 08:29:20;;;;;;;11.82;5.82;;;12.60;49.40;;;;;;20675934;28;20481;-46
2022/03/25 08:39:22;;;;;;;9.52;5.95;;;13.10;48.50;;;;;;20654981;28;20101;-53
2022/03/25 08:49:26;;;;;;;12.20;6.55;;;13.50;49.50;;;;;;20658801;28;20042;-55
2022/03/25 08:59:29;;;;;;;8.68;5.40;;;13.90;51.20;;;;;;20656213;28;20092;-47
2022/03/25 09:09:32;;;;;;;10.05;5.95;;;14.60;50.20;;;;;;20672627;28;20065;-54
2022/03/25 09:19:34;;;;;;;10.68;6.60;;;14.80;49.60;;;;;;20672086;28;20474;-49
2022/03/25 09:29:37;;;;;;;17.08;7.45;;;15.20;50.40;;;;;;20671171;28;20038;-53
2022/03/25 09:39:40;;;;;;;15.20;6.70;;;15.30;49.80;;;;;;20670417;28;20046;-47
2022/03/25 09:49:47;;;;;;;14.10;8.02;;;15.50;50.20;;;;;;20653963;28;20054;-49
2022/03/25 09:59:53;;;;;;;12.23;7.93;;;15.80;49.40;;;;;;20637132;28;20397;-55
2022/03/25 10:10:15;;;;;;;14.60;8.95;;;16.00;50.90;;;;;;20671494;28;20054;-48
2022/03/25 10:20:22;;;;;;;23.08;9.68;;;16.20;49.60;;;;;;20669178;28;20039;-57
2022/03/25 10:30:39;;;;;;;15.18;10.00;;;16.60;51.00;;;;;;20684759;28;20822;-56
2022/03/25 10:40:53;;;;;;;16.05;9.73;;;16.60;49.80;;;;;;20683756;28;20128;-47
2022/03/25 10:51:05;;;;;;;15.07;8.18;;;16.30;51.00;;;;;;20683102;28;20478;-56
2022/03/25 11:01:08;;;;;;;16.67;9.30;;;16.50;49.20;;;;;;20682206;28;20042;-50
2022/03/25 11:11:14;;;;;;;19.02;9.98;;;16.80;48.70;;;;;;20681669;28;20446;-56
2022/03/25 11:21:18;;;;;;;18.00;10.40;;;16.70;50.60;;;;;;20660912;28;20043;-56
2022/03/25 11:31:20;;;;;;;17.98;10.63;;;16.70;49.40;;;;;;20680565;28;20097;-56
2022/03/25 11:41:26;;;;;;;18.33;10.57;;;16.30;50.40;;;;;;20678825;28;20414;-57
2022/03/25 11:51:31;;;;;;;21.40;11.45;;;16.80;50.50;;;;;;20646287;28;20105;-57
2022/03/25 12:01:37;;;;;;;17.70;10.80;;;17.20;52.70;;;;;;20677908;28;20097;-57
2022/03/25 12:11:55;;;;;;;16.67;10.77;;;17.40;48.90;;;;;;20677201;28;20101;-57
2022/03/25 12:21:59;;;;;;;23.33;12.45;;;17.20;50.40;;;;;;20659893;28;20070;-57
2022/03/25 12:32:03;;;;;;;20.60;12.10;;;17.10;49.70;;;;;;20675216;28;20092;-57
2022/03/25 12:42:13;;;;;;;22.23;11.77;;;17.20;49.50;;;;;;20671988;28;20042;-57
2022/03/25 12:52:23;;;;;;;19.55;10.60;;;17.20;49.60;;;;;;20671708;28;20482;-54
2022/03/25 13:02:31;;;;;;;18.55;11.27;;;17.10;48.30;;;;;;20671711;28;20105;-56
2022/03/25 13:12:40;;;;;;;20.83;11.57;;;16.80;49.30;;;;;;20655145;28;20030;-57
2022/03/25 13:23:05;;;;;;;16.83;11.20;;;17.00;48.20;;;;;;20655587;28;20101;-56
2022/03/25 13:33:15;;;;;;;20.98;11.68;;;16.80;50.70;;;;;;20670970;28;20089;-57
2022/03/25 13:43:23;;;;;;;18.77;11.73;;;16.80;47.50;;;;;;20655358;28;20034;-55
2022/03/25 13:53:39;;;;;;;19.52;9.25;;;16.70;47.60;;;;;;20564333;28;20433;-49
2022/03/25 14:03:42;;;;;;;19.05;10.18;;;16.50;48.00;;;;;;20564726;28;20106;-55
2022/03/25 14:14:01;;;;;;;14.38;9.35;;;16.00;47.60;;;;;;20564397;28;20534;-54
2022/03/25 14:34:26;;;;;;;14.05;8.15;;;15.30;48.30;;;;;;20620078;28;20058;-55
2022/03/25 14:44:29;;;;;;;12.65;6.50;;;14.60;47.10;;;;;;20671674;28;20065;-54
2022/03/25 14:54:35;;;;;;;11.02;7.25;;;14.10;49.50;;;;;;20651380;28;20110;-54
2022/03/25 15:04:39;;;;;;;10.05;5.85;;;13.70;48.30;;;;;;20648631;28;20445;-51
2022/03/25 15:14:42;;;;;;;11.65;6.07;;;13.10;47.40;;;;;;20682594;28;20046;-53
2022/03/25 15:24:46;;;;;;;12.32;7.28;;;12.50;48.60;;;;;;20681351;28;20371;-53
2022/03/25 15:34:49;;;;;;;12.52;7.50;;;12.00;50.50;;;;;;20679895;28;20054;-51
2022/03/25 15:44:52;;;;;;;12.00;7.53;;;11.60;50.90;;;;;;20679601;28;20034;-53
2022/03/25 15:54:57;;;;;;;15.77;7.85;;;11.20;52.30;;;;;;20678473;28;20445;-47
2022/03/25 16:05:00;;;;;;;14.70;8.40;;;10.70;53.80;;;;;;20663591;28;20046;-46
2022/03/25 16:15:04;;;;;;;13.82;8.88;;;10.00;54.80;;;;;;20676391;28;20120;-52
2022/03/25 16:25:11;;;;;;;14.80;8.30;;;9.20;56.50;;;;;;20659713;28;20042;-47
2022/03/25 16:35:15;;;;;;;13.85;8.70;;;8.50;59.50;;;;;;20660012;28;20490;-45
2022/03/25 16:45:19;;;;;;;14.93;8.40;;;7.90;59.60;;;;;;20658715;28;20046;-52
2022/03/25 16:55:21;;;;;;;16.02;8.75;;;7.30;63.00;;;;;;20568048;28;20082;-59
2022/03/25 17:05:24;;;;;;;15.98;8.35;;;6.60;64.40;;;;;;20551425;28;20055;-58
2022/03/25 17:15:27;;;;;;;19.48;9.23;;;6.30;65.00;;;;;;20574419;28;20047;-59
2022/03/25 17:25:32;;;;;;;20.05;8.68;;;5.90;67.00;;;;;;20574309;28;20054;-46
2022/03/25 17:35:36;;;;;;;20.15;9.48;;;5.50;67.90;;;;;;20673932;28;20107;-46
2022/03/25 17:45:40;;;;;;;19.73;9.50;;;5.10;68.90;;;;;;20756064;28;20038;-46
2022/03/25 17:55:44;;;;;;;14.60;8.43;;;4.80;69.00;;;;;;20714110;28;20080;-50
2022/03/25 18:05:48;;;;;;;17.52;8.40;;;4.50;68.70;;;;;;20658679;28;20050;-45
2022/03/25 18:15:52;;;;;;;20.33;8.85;;;4.30;70.10;;;;;;20743807;28;20084;-45
2022/03/25 18:25:57;;;;;;;14.10;7.45;;;4.10;69.80;;;;;;20741627;28;20315;-45
2022/03/25 18:36:00;;;;;;;16.70;8.00;;;4.00;69.60;;;;;;20577533;28;20070;-45
2022/03/25 18:46:03;;;;;;;16.50;7.93;;;3.90;69.00;;;;;;20484480;28;20144;-45
2022/03/25 18:56:07;;;;;;;14.60;7.95;;;3.80;69.60;;;;;;20423984;29;20150;-46
2022/03/25 19:06:13;;;;;;;15.27;7.90;;;3.70;68.60;;;;;;20419635;29;20043;-46
2022/03/25 19:16:17;;;;;;;16.13;7.40;;;3.70;68.30;;;;;;20501370;28;20051;-52
2022/03/25 19:26:21;;;;;;;14.02;7.15;;;3.70;68.70;;;;;;20630877;28;20116;-46
2022/03/25 19:36:26;;;;;;;12.32;6.90;;;3.60;67.70;;;;;;20750142;28;20041;-47
2022/03/25 19:46:28;;;;;;;14.85;7.05;;;3.50;67.70;;;;;;20763844;28;20038;-46
2022/03/25 19:56:33;;;;;;;12.30;6.70;;;3.40;67.30;;;;;;20748881;28;20436;-50
2022/03/25 20:06:37;;;;;;;13.73;6.68;;;3.40;68.60;;;;;;20733266;28;20548;-45
2022/03/25 20:16:39;;;;;;;12.00;5.70;;;3.30;68.60;;;;;;20681499;28;20089;-45
2022/03/25 20:26:43;;;;;;;11.55;5.85;;;3.30;67.40;;;;;;20680289;28;20038;-44
2022/03/25 20:36:53;;;;;;;17.20;10.07;;;3.30;67.50;;;;;;20664352;28;20058;-45
2022/03/25 20:46:55;;;;;;;12.55;7.15;;;3.30;70.10;;;;;;20704878;28;20088;-47
2022/03/25 20:56:58;;;;;;;17.13;7.75;;;3.50;67.90;;;;;;20759160;28;20069;-45
2022/03/25 21:07:01;;;;;;;16.50;8.52;;;3.50;67.90;;;;;;20758676;28;20038;-47
2022/03/25 21:17:05;;;;;;;18.38;9.50;;;3.30;71.00;;;;;;20742772;28;20033;-47
2022/03/25 21:27:08;;;;;;;18.98;11.30;;;3.20;72.10;;;;;;20705791;28;20069;-45
2022/03/25 21:37:11;;;;;;;19.63;9.30;;;3.30;72.40;;;;;;20675138;28;20081;-46
2022/03/25 21:47:13;;;;;;;17.80;8.90;;;3.50;71.60;;;;;;20642423;28;20069;-46
2022/03/25 21:57:19;;;;;;;18.60;9.57;;;3.50;70.50;;;;;;20674504;28;20034;-45
2022/03/25 22:07:22;;;;;;;24.70;10.45;;;3.40;71.70;;;;;;20681740;28;20092;-45
2022/03/25 22:17:24;;;;;;;15.13;7.85;;;3.20;71.00;;;;;;20771629;28;20559;-47
2022/03/25 22:27:28;;;;;;;15.45;8.13;;;3.40;70.80;;;;;;20676491;28;20039;-46
2022/03/25 22:37:31;;;;;;;15.80;8.93;;;3.30;70.10;;;;;;20656318;28;20101;-44
2022/03/25 22:47:33;;;;;;;15.88;8.85;;;3.10;71.10;;;;;;20719385;28;20038;-45
2022/03/25 22:57:36;;;;;;;18.20;8.63;;;3.00;71.60;;;;;;20736243;28;20064;-45
2022/03/25 23:07:39;;;;;;;21.02;9.43;;;3.00;72.20;;;;;;20752049;28;20053;-46
2022/03/25 23:17:42;;;;;;;20.38;9.60;;;3.10;71.50;;;;;;20752210;28;20096;-50
2022/03/25 23:27:45;;;;;;;17.85;9.15;;;3.20;72.20;;;;;;20694156;28;20039;-51
2022/03/25 23:37:48;;;;;;;18.05;9.20;;;3.00;71.90;;;;;;20683811;28;20081;-47
2022/03/25 23:47:50;;;;;;;19.73;9.85;;;3.00;71.30;;;;;;20684817;28;20034;-46
2022/03/25 23:57:52;;;;;;;19.70;9.70;;;3.00;71.50;;;;;;20682857;28;20043;-45
